sensor_id;sensor_type;location;lat;lon;timestamp;pressure;altitude;pressure_sealevel;temperature;humidity
38716;BME280;24833;49.324;8.694;2023-12-20T00:01:24;99875.13;;;3.89;100.00
38716;BME280;24833;49.324;8.694;2023-12-20T00:03:51;99868.88;;;3.90;100.00
38716;BME280;24833;49.324;8.694;2023-12-20T00:06:19;99874.16;;;3.90;100.00
38716;BME280;24833;49.324;8.694;2023-12-20T00:08:46;99877.47;;;3.92;100.00
38716;BME280;24833;49.324;8.694;2023-12-20T00:11:13;99865.25;;;3.91;100.00
38716;BME280;24833;49.324;8.694;2023-12-20T00:13:40;99868.56;;;3.93;100.00
38716;BME280;24833;49.324;8.694;2023-12-20T00:16:07;99865.91;;;3.93;100.00
38716;BME280;24833;49.324;8.694;2023-12-20T00:18:34;99871.06;;;3.95;100.00
38716;BME280;24833;49.324;8.694;2023-12-20T00:21:01;99873.72;;;3.95;100.00
38716;BME280;24833;49.324;8.694;2023-12-20T00:23:29;99875.38;;;3.96;100.00
38716;BME280;24833;49.324;8.694;2023-12-20T00:25:56;99864.63;;;3.97;100.00
38716;BME280;24833;49.324;8.694;2023-12-20T00:28:23;99871.56;;;3.98;100.00
38716;BME280;24833;49.324;8.694;2023-12-20T00:30:50;99868.94;;;3.98;100.00
38716;BME280;24833;49.324;8.694;2023-12-20T00:33:17;99871.56;;;3.98;100.00
38716;BME280;24833;49.324;8.694;2023-12-20T00:35:57;99870.44;;;4.01;100.00
38716;BME280;24833;49.324;8.694;2023-12-20T00:38:24;99868.66;;;4.01;100.00
38716;BME280;24833;49.324;8.694;2023-12-20T00:40:51;99869.47;;;4.02;100.00
38716;BME280;24833;49.324;8.694;2023-12-20T00:43:18;99857.09;;;4.02;100.00
38716;BME280;24833;49.324;8.694;2023-12-20T00:45:45;99856.13;;;4.03;100.00
38716;BME280;24833;49.324;8.694;2023-12-20T00:48:12;99855.13;;;4.04;100.00
38716;BME280;24833;49.324;8.694;2023-12-20T00:50:39;99855.13;;;4.04;100.00
38716;BME280;24833;49.324;8.694;2023-12-20T00:53:08;99858.44;;;4.06;100.00
38716;BME280;24833;49.324;8.694;2023-12-20T00:55:35;99850.50;;;4.06;100.00
38716;BME280;24833;49.324;8.694;2023-12-20T00:58:02;99845.22;;;4.06;100.00
38716;BME280;24833;49.324;8.694;2023-12-20T01:00:30;99847.88;;;4.06;100.00
38716;BME280;24833;49.324;8.694;2023-12-20T01:02:57;99852.16;;;4.07;100.00
38716;BME280;24833;49.324;8.694;2023-12-20T01:05:25;99849.53;;;4.07;100.00
38716;BME280;24833;49.324;8.694;2023-12-20T01:07:52;99852.16;;;4.07;100.00
38716;BME280;24833;49.324;8.694;2023-12-20T01:10:19;99839.81;;;4.08;100.00
38716;BME280;24833;49.324;8.694;2023-12-20T01:12:46;99843.28;;;4.08;100.00
38716;BME280;24833;49.324;8.694;2023-12-20T01:15:14;99853.84;;;4.08;100.00
38716;BME280;24833;49.324;8.694;2023-12-20T01:17:41;99852.03;;;4.09;100.00
38716;BME280;24833;49.324;8.694;2023-12-20T01:20:09;99851.06;;;4.10;100.00
38716;BME280;24833;49.324;8.694;2023-12-20T01:22:36;99844.13;;;4.09;100.00
38716;BME280;24833;49.324;8.694;2023-12-20T01:25:04;99853.69;;;4.10;100.00
38716;BME280;24833;49.324;8.694;2023-12-20T01:27:31;99836.03;;;4.10;100.00
38716;BME280;24833;49.324;8.694;2023-12-20T01:29:58;99844.94;;;4.09;100.00
38716;BME280;24833;49.324;8.694;2023-12-20T01:32:26;99843.94;;;4.10;100.00
38716;BME280;24833;49.324;8.694;2023-12-20T01:34:53;99836.03;;;4.10;100.00
38716;BME280;24833;49.324;8.694;2023-12-20T01:37:22;99841.31;;;4.10;100.00
38716;BME280;24833;49.324;8.694;2023-12-20T01:39:50;99828.09;;;4.10;100.00
38716;BME280;24833;49.324;8.694;2023-12-20T01:42:19;99829.91;;;4.10;100.00
38716;BME280;24833;49.324;8.694;2023-12-20T01:44:49;99830.75;;;4.10;100.00
38716;BME280;24833;49.324;8.694;2023-12-20T01:47:17;99842.13;;;4.11;100.00
38716;BME280;24833;49.324;8.694;2023-12-20T01:49:44;99841.31;;;4.10;100.00
38716;BME280;24833;49.324;8.694;2023-12-20T01:52:11;99838.66;;;4.10;100.00
38716;BME280;24833;49.324;8.694;2023-12-20T01:54:40;99835.03;;;4.12;100.00
38716;BME280;24833;49.324;8.694;2023-12-20T01:57:09;99840.16;;;4.13;100.00
38716;BME280;24833;49.324;8.694;2023-12-20T01:59:39;99832.41;;;4.12;100.00
38716;BME280;24833;49.324;8.694;2023-12-20T02:02:07;99837.69;;;4.12;100.00
38716;BME280;24833;49.324;8.694;2023-12-20T02:04:35;99838.50;;;4.12;100.00
38716;BME280;24833;49.324;8.694;2023-12-20T02:07:03;99839.34;;;4.13;100.00
38716;BME280;24833;49.324;8.694;2023-12-20T02:09:30;99834.88;;;4.13;100.00
38716;BME280;24833;49.324;8.694;2023-12-20T02:11:59;99831.25;;;4.14;100.00
38716;BME280;24833;49.324;8.694;2023-12-20T02:14:26;99839.19;;;4.14;100.00
38716;BME280;24833;49.324;8.694;2023-12-20T02:16:53;99831.25;;;4.14;100.00
38716;BME280;24833;49.324;8.694;2023-12-20T02:19:20;99830.44;;;4.14;100.00
38716;BME280;24833;49.324;8.694;2023-12-20T02:21:48;99832.94;;;4.15;100.00
38716;BME280;24833;49.324;8.694;2023-12-20T02:24:15;99835.59;;;4.15;100.00
38716;BME280;24833;49.324;8.694;2023-12-20T02:26:42;99835.59;;;4.15;100.00
38716;BME280;24833;49.324;8.694;2023-12-20T02:29:13;99839.06;;;4.16;100.00
38716;BME280;24833;49.324;8.694;2023-12-20T02:31:40;99835.41;;;4.17;100.00
38716;BME280;24833;49.324;8.694;2023-12-20T02:34:07;99827.66;;;4.15;100.00
38716;BME280;24833;49.324;8.694;2023-12-20T02:36:34;99837.06;;;4.18;100.00
38716;BME280;24833;49.324;8.694;2023-12-20T02:39:01;99839.72;;;4.18;100.00
38716;BME280;24833;49.324;8.694;2023-12-20T02:41:28;99837.91;;;4.18;100.00
38716;BME280;24833;49.324;8.694;2023-12-20T02:43:55;99838.72;;;4.19;100.00
38716;BME280;24833;49.324;8.694;2023-12-20T02:46:23;99838.72;;;4.19;100.00
38716;BME280;24833;49.324;8.694;2023-12-20T02:48:50;99845.66;;;4.20;100.00
38716;BME280;24833;49.324;8.694;2023-12-20T02:51:20;99846.50;;;4.20;100.00
38716;BME280;24833;49.324;8.694;2023-12-20T02:53:47;99847.31;;;4.21;100.00
38716;BME280;24833;49.324;8.694;2023-12-20T02:56:14;99852.59;;;4.21;100.00
38716;BME280;24833;49.324;8.694;2023-12-20T02:58:41;99838.44;;;4.22;100.00
38716;BME280;24833;49.324;8.694;2023-12-20T03:01:08;99838.44;;;4.22;100.00
38716;BME280;24833;49.324;8.694;2023-12-20T03:03:35;99837.59;;;4.21;100.00
38716;BME280;24833;49.324;8.694;2023-12-20T03:06:03;99830.50;;;4.22;100.00
38716;BME280;24833;49.324;8.694;2023-12-20T03:08:30;99822.59;;;4.22;100.00
38716;BME280;24833;49.324;8.694;2023-12-20T03:10:59;99825.22;;;4.22;100.00
38716;BME280;24833;49.324;8.694;2023-12-20T03:13:26;99834.81;;;4.23;100.00
38716;BME280;24833;49.324;8.694;2023-12-20T03:15:54;99834.81;;;4.23;100.00
38716;BME280;24833;49.324;8.694;2023-12-20T03:18:21;99834.81;;;4.23;100.00
38716;BME280;24833;49.324;8.694;2023-12-20T03:20:48;99827.88;;;4.22;100.00
38716;BME280;24833;49.324;8.694;2023-12-20T03:23:17;99838.28;;;4.23;100.00
38716;BME280;24833;49.324;8.694;2023-12-20T03:25:44;99847.03;;;4.24;100.00
38716;BME280;24833;49.324;8.694;2023-12-20T03:28:14;99846.22;;;4.23;100.00
38716;BME280;24833;49.324;8.694;2023-12-20T03:30:41;99837.28;;;4.24;100.00
38716;BME280;24833;49.324;8.694;2023-12-20T03:33:08;99847.88;;;4.24;100.00
38716;BME280;24833;49.324;8.694;2023-12-20T03:35:35;99837.28;;;4.24;100.00
38716;BME280;24833;49.324;8.694;2023-12-20T03:38:02;99835.31;;;4.26;100.00
38716;BME280;24833;49.324;8.694;2023-12-20T03:40:30;99830.84;;;4.27;100.00
38716;BME280;24833;49.324;8.694;2023-12-20T03:42:57;99830.84;;;4.27;100.00
38716;BME280;24833;49.324;8.694;2023-12-20T03:45:25;99833.50;;;4.27;100.00
38716;BME280;24833;49.324;8.694;2023-12-20T03:47:52;99835.31;;;4.26;100.00
38716;BME280;24833;49.324;8.694;2023-12-20T03:50:29;99829.03;;;4.27;100.00
38716;BME280;24833;49.324;8.694;2023-12-20T03:52:56;99833.50;;;4.27;100.00
38716;BME280;24833;49.324;8.694;2023-12-20T03:55:23;99837.81;;;4.28;100.00
38716;BME280;24833;49.324;8.694;2023-12-20T03:57:51;99843.09;;;4.28;100.00
38716;BME280;24833;49.324;8.694;2023-12-20T04:00:18;99839.50;;;4.29;100.00
38716;BME280;24833;49.324;8.694;2023-12-20T04:02:45;99835.03;;;4.29;100.00
38716;BME280;24833;49.324;8.694;2023-12-20T04:05:12;99840.31;;;4.29;100.00
38716;BME280;24833;49.324;8.694;2023-12-20T04:07:40;99841.13;;;4.30;100.00
38716;BME280;24833;49.324;8.694;2023-12-20T04:10:10;99837.50;;;4.31;100.00
38716;BME280;24833;49.324;8.694;2023-12-20T04:12:37;99835.84;;;4.30;100.00
38716;BME280;24833;49.324;8.694;2023-12-20T04:15:05;99833.88;;;4.32;100.00
38716;BME280;24833;49.324;8.694;2023-12-20T04:17:37;99839.16;;;4.32;100.00
38716;BME280;24833;49.324;8.694;2023-12-20T04:20:05;99836.53;;;4.32;100.00
38716;BME280;24833;49.324;8.694;2023-12-20T04:22:33;99840.81;;;4.33;100.00
38716;BME280;24833;49.324;8.694;2023-12-20T04:25:00;99844.44;;;4.32;100.00
38716;BME280;24833;49.324;8.694;2023-12-20T04:27:27;99845.13;;;4.34;100.00
38716;BME280;24833;49.324;8.694;2023-12-20T04:29:54;99848.75;;;4.33;100.00
38716;BME280;24833;49.324;8.694;2023-12-20T04:32:21;99855.69;;;4.34;100.00
38716;BME280;24833;49.324;8.694;2023-12-20T04:34:51;99860.16;;;4.33;100.00
38716;BME280;24833;49.324;8.694;2023-12-20T04:37:18;99864.31;;;4.36;100.00
38716;BME280;24833;49.324;8.694;2023-12-20T04:39:45;99866.13;;;4.35;100.00
38716;BME280;24833;49.324;8.694;2023-12-20T04:42:13;99865.31;;;4.35;100.00
38716;BME280;24833;49.324;8.694;2023-12-20T04:44:40;99861.69;;;4.36;100.00
38716;BME280;24833;49.324;8.694;2023-12-20T04:47:07;99861.69;;;4.36;100.00
38716;BME280;24833;49.324;8.694;2023-12-20T04:49:34;99873.06;;;4.36;100.00
38716;BME280;24833;49.324;8.694;2023-12-20T04:52:01;99873.06;;;4.36;100.00
38716;BME280;24833;49.324;8.694;2023-12-20T04:54:28;99881.84;;;4.37;100.00
38716;BME280;24833;49.324;8.694;2023-12-20T04:56:55;99879.19;;;4.37;100.00
38716;BME280;24833;49.324;8.694;2023-12-20T04:59:22;99885.31;;;4.37;100.00
38716;BME280;24833;49.324;8.694;2023-12-20T05:01:49;99882.66;;;4.37;100.00
38716;BME280;24833;49.324;8.694;2023-12-20T05:04:16;99886.13;;;4.38;100.00
38716;BME280;24833;49.324;8.694;2023-12-20T05:06:43;99889.59;;;4.38;100.00
38716;BME280;24833;49.324;8.694;2023-12-20T05:09:10;99880.00;;;4.37;100.00
38716;BME280;24833;49.324;8.694;2023-12-20T05:11:38;99878.19;;;4.38;100.00
38716;BME280;24833;49.324;8.694;2023-12-20T05:14:05;99884.31;;;4.38;100.00
38716;BME280;24833;49.324;8.694;2023-12-20T05:16:32;99880.84;;;4.38;100.00
38716;BME280;24833;49.324;8.694;2023-12-20T05:18:59;99894.06;;;4.38;100.00
38716;BME280;24833;49.324;8.694;2023-12-20T05:21:27;99898.34;;;4.39;100.00
38716;BME280;24833;49.324;8.694;2023-12-20T05:23:54;99903.66;;;4.39;100.00
38716;BME280;24833;49.324;8.694;2023-12-20T05:26:21;99908.94;;;4.39;100.00
38716;BME280;24833;49.324;8.694;2023-12-20T05:28:48;99915.06;;;4.40;100.00
38716;BME280;24833;49.324;8.694;2023-12-20T05:31:15;99911.56;;;4.39;100.00
38716;BME280;24833;49.324;8.694;2023-12-20T05:33:42;99902.66;;;4.40;100.00
38716;BME280;24833;49.324;8.694;2023-12-20T05:36:10;99911.41;;;4.41;100.00
38716;BME280;24833;49.324;8.694;2023-12-20T05:38:40;99907.81;;;4.42;100.00
38716;BME280;24833;49.324;8.694;2023-12-20T05:41:08;99913.94;;;4.42;100.00
38716;BME280;24833;49.324;8.694;2023-12-20T05:43:35;99911.13;;;4.44;100.00
38716;BME280;24833;49.324;8.694;2023-12-20T05:46:02;99911.97;;;4.44;100.00
38716;BME280;24833;49.324;8.694;2023-12-20T05:48:29;99915.44;;;4.45;100.00
38716;BME280;24833;49.324;8.694;2023-12-20T05:50:56;99910.16;;;4.45;100.00
38716;BME280;24833;49.324;8.694;2023-12-20T05:53:24;99918.75;;;4.47;100.00
38716;BME280;24833;49.324;8.694;2023-12-20T05:55:53;99920.56;;;4.46;100.00
38716;BME280;24833;49.324;8.694;2023-12-20T05:58:20;99931.97;;;4.47;100.00
38716;BME280;24833;49.324;8.694;2023-12-20T06:00:47;99945.06;;;4.48;100.00
38716;BME280;24833;49.324;8.694;2023-12-20T06:03:15;99950.34;;;4.48;100.00
38716;BME280;24833;49.324;8.694;2023-12-20T06:05:42;99947.53;;;4.50;100.00
38716;BME280;24833;49.324;8.694;2023-12-20T06:08:10;99950.19;;;4.50;100.00
38716;BME280;24833;49.324;8.694;2023-12-20T06:10:37;99958.94;;;4.50;100.00
38716;BME280;24833;49.324;8.694;2023-12-20T06:13:04;99964.22;;;4.50;100.00
38716;BME280;24833;49.324;8.694;2023-12-20T06:15:33;99958.94;;;4.50;100.00
38716;BME280;24833;49.324;8.694;2023-12-20T06:18:00;99960.75;;;4.50;100.00
38716;BME280;24833;49.324;8.694;2023-12-20T06:20:27;99961.59;;;4.50;100.00
38716;BME280;24833;49.324;8.694;2023-12-20T06:22:54;99964.22;;;4.50;100.00
38716;BME280;24833;49.324;8.694;2023-12-20T06:25:22;99976.47;;;4.51;100.00
38716;BME280;24833;49.324;8.694;2023-12-20T06:27:49;99980.91;;;4.51;100.00
38716;BME280;24833;49.324;8.694;2023-12-20T06:30:16;99985.38;;;4.50;100.00
38716;BME280;24833;49.324;8.694;2023-12-20T06:32:44;99987.88;;;4.52;100.00
38716;BME280;24833;49.324;8.694;2023-12-20T06:35:11;99992.31;;;4.51;100.00
38716;BME280;24833;49.324;8.694;2023-12-20T06:37:40;99993.97;;;4.52;100.00
38716;BME280;24833;49.324;8.694;2023-12-20T06:40:10;99995.63;;;4.53;100.00
38716;BME280;24833;49.324;8.694;2023-12-20T06:42:45;99998.28;;;4.53;100.00
38716;BME280;24833;49.324;8.694;2023-12-20T06:45:27;99997.28;;;4.54;100.00
38716;BME280;24833;49.324;8.694;2023-12-20T06:47:54;100000.94;;;4.53;100.00
38716;BME280;24833;49.324;8.694;2023-12-20T06:50:21;100003.44;;;4.55;100.00
38716;BME280;24833;49.324;8.694;2023-12-20T06:52:49;100005.22;;;4.54;100.00
38716;BME280;24833;49.324;8.694;2023-12-20T06:55:16;99997.28;;;4.54;100.00
38716;BME280;24833;49.324;8.694;2023-12-20T06:57:44;100001.63;;;4.55;100.00
38716;BME280;24833;49.324;8.694;2023-12-20T07:00:12;100007.88;;;4.54;100.00
38716;BME280;24833;49.324;8.694;2023-12-20T07:02:39;100013.16;;;4.54;100.00
38716;BME280;24833;49.324;8.694;2023-12-20T07:05:07;100006.91;;;4.55;100.00
38716;BME280;24833;49.324;8.694;2023-12-20T07:07:34;100004.41;;;4.54;100.00
38716;BME280;24833;49.324;8.694;2023-12-20T07:10:02;100007.03;;;4.54;100.00
38716;BME280;24833;49.324;8.694;2023-12-20T07:12:29;100007.03;;;4.54;100.00
38716;BME280;24833;49.324;8.694;2023-12-20T07:14:56;99997.44;;;4.53;100.00
38716;BME280;24833;49.324;8.694;2023-12-20T07:17:23;99998.28;;;4.53;100.00
38716;BME280;24833;49.324;8.694;2023-12-20T07:19:50;100003.72;;;4.52;100.00
38716;BME280;24833;49.324;8.694;2023-12-20T07:22:17;100009.84;;;4.52;100.00
38716;BME280;24833;49.324;8.694;2023-12-20T07:24:44;100005.53;;;4.51;100.00
38716;BME280;24833;49.324;8.694;2023-12-20T07:27:12;100015.44;;;4.49;100.00
38716;BME280;24833;49.324;8.694;2023-12-20T07:29:39;100008.50;;;4.48;100.00
38716;BME280;24833;49.324;8.694;2023-12-20T07:32:06;100013.09;;;4.46;100.00
38716;BME280;24833;49.324;8.694;2023-12-20T07:34:33;100007.28;;;4.43;100.00
38716;BME280;24833;49.324;8.694;2023-12-20T07:37:03;100024.97;;;4.42;100.00
38716;BME280;24833;49.324;8.694;2023-12-20T07:39:31;100025.25;;;4.39;100.00
38716;BME280;24833;49.324;8.694;2023-12-20T07:41:58;100016.63;;;4.37;100.00
38716;BME280;24833;49.324;8.694;2023-12-20T07:44:25;100015.09;;;4.34;100.00
38716;BME280;24833;49.324;8.694;2023-12-20T07:46:52;100012.78;;;4.31;100.00
38716;BME280;24833;49.324;8.694;2023-12-20T07:49:19;100018.38;;;4.28;100.00
38716;BME280;24833;49.324;8.694;2023-12-20T07:51:46;100020.47;;;4.25;100.00
38716;BME280;24833;49.324;8.694;2023-12-20T07:54:16;100034.00;;;4.22;100.00
38716;BME280;24833;49.324;8.694;2023-12-20T07:56:43;100044.84;;;4.19;100.00
38716;BME280;24833;49.324;8.694;2023-12-20T07:59:10;100045.16;;;4.16;100.00
38716;BME280;24833;49.324;8.694;2023-12-20T08:01:51;100050.72;;;4.13;100.00
38716;BME280;24833;49.324;8.694;2023-12-20T08:04:18;100057.97;;;4.10;100.00
38716;BME280;24833;49.324;8.694;2023-12-20T08:06:46;100056.47;;;4.08;100.00
38716;BME280;24833;49.324;8.694;2023-12-20T08:09:13;100054.09;;;4.05;100.00
38716;BME280;24833;49.324;8.694;2023-12-20T08:11:40;100057.72;;;4.04;100.00
38716;BME280;24833;49.324;8.694;2023-12-20T08:14:11;100058.84;;;4.01;100.00
38716;BME280;24833;49.324;8.694;2023-12-20T08:16:38;100059.81;;;4.00;100.00
38716;BME280;24833;49.324;8.694;2023-12-20T08:19:05;100058.16;;;3.99;100.00
38716;BME280;24833;49.324;8.694;2023-12-20T08:21:32;100062.59;;;3.99;100.00
38716;BME280;24833;49.324;8.694;2023-12-20T08:24:04;100073.03;;;4.00;100.00
38716;BME280;24833;49.324;8.694;2023-12-20T08:26:32;100066.91;;;4.00;100.00
38716;BME280;24833;49.324;8.694;2023-12-20T08:28:59;100066.78;;;4.01;100.00
38716;BME280;24833;49.324;8.694;2023-12-20T08:31:29;100073.72;;;4.02;100.00
38716;BME280;24833;49.324;8.694;2023-12-20T08:33:56;100081.34;;;4.05;100.00
38716;BME280;24833;49.324;8.694;2023-12-20T08:36:24;100071.44;;;4.07;100.00
38716;BME280;24833;49.324;8.694;2023-12-20T08:38:51;100067.56;;;4.12;100.00
38716;BME280;24833;49.324;8.694;2023-12-20T08:41:18;100061.00;;;4.16;100.00
38716;BME280;24833;49.324;8.694;2023-12-20T08:43:45;100074.59;;;4.21;100.00
38716;BME280;24833;49.324;8.694;2023-12-20T08:46:14;100068.72;;;4.27;100.00
38716;BME280;24833;49.324;8.694;2023-12-20T08:48:42;100066.47;;;4.32;100.00
38716;BME280;24833;49.324;8.694;2023-12-20T08:51:10;100071.16;;;4.38;100.00
38716;BME280;24833;49.324;8.694;2023-12-20T08:53:37;100073.22;;;4.44;100.00
38716;BME280;24833;49.324;8.694;2023-12-20T08:56:05;100078.06;;;4.49;100.00
38716;BME280;24833;49.324;8.694;2023-12-20T08:58:32;100081.06;;;4.54;100.00
38716;BME280;24833;49.324;8.694;2023-12-20T09:01:00;100082.31;;;4.59;100.00
38716;BME280;24833;49.324;8.694;2023-12-20T09:03:27;100070.44;;;4.63;100.00
38716;BME280;24833;49.324;8.694;2023-12-20T09:05:54;100080.72;;;4.67;100.00
38716;BME280;24833;49.324;8.694;2023-12-20T09:08:21;100084.06;;;4.69;100.00
38716;BME280;24833;49.324;8.694;2023-12-20T09:10:48;100092.66;;;4.71;100.00
38716;BME280;24833;49.324;8.694;2023-12-20T09:13:15;100081.09;;;4.72;100.00
38716;BME280;24833;49.324;8.694;2023-12-20T09:15:43;100074.00;;;4.72;100.00
38716;BME280;24833;49.324;8.694;2023-12-20T09:18:10;100084.59;;;4.72;100.00
38716;BME280;24833;49.324;8.694;2023-12-20T09:20:37;100084.44;;;4.74;100.00
38716;BME280;24833;49.324;8.694;2023-12-20T09:23:09;100086.25;;;4.73;100.00
38716;BME280;24833;49.324;8.694;2023-12-20T09:25:37;100083.59;;;4.73;100.00
38716;BME280;24833;49.324;8.694;2023-12-20T09:28:04;100086.09;;;4.75;100.00
38716;BME280;24833;49.324;8.694;2023-12-20T09:30:31;100081.50;;;4.77;100.00
38716;BME280;24833;49.324;8.694;2023-12-20T09:32:58;100091.09;;;4.78;100.00
38716;BME280;24833;49.324;8.694;2023-12-20T09:35:25;100097.75;;;4.82;100.00
38716;BME280;24833;49.324;8.694;2023-12-20T09:37:53;100094.78;;;4.85;100.00
38716;BME280;24833;49.324;8.694;2023-12-20T09:40:20;100094.47;;;4.88;100.00
38716;BME280;24833;49.324;8.694;2023-12-20T09:43:04;100108.09;;;4.93;100.00
38716;BME280;24833;49.324;8.694;2023-12-20T09:45:32;100102.53;;;4.96;100.00
38716;BME280;24833;49.324;8.694;2023-12-20T09:47:59;100103.03;;;5.00;100.00
38716;BME280;24833;49.324;8.694;2023-12-20T09:50:27;100101.75;;;5.04;100.00
38716;BME280;24833;49.324;8.694;2023-12-20T09:52:56;100117.19;;;5.08;100.00
38716;BME280;24833;49.324;8.694;2023-12-20T09:55:27;100106.97;;;5.13;100.00
38716;BME280;24833;49.324;8.694;2023-12-20T09:57:55;100103.03;;;5.17;100.00
38716;BME280;24833;49.324;8.694;2023-12-20T10:00:22;100101.75;;;5.22;100.00
38716;BME280;24833;49.324;8.694;2023-12-20T10:03:00;100107.56;;;5.25;100.00
38716;BME280;24833;49.324;8.694;2023-12-20T10:05:30;100110.75;;;5.29;100.00
38716;BME280;24833;49.324;8.694;2023-12-20T10:07:59;100102.47;;;5.32;100.00
38716;BME280;24833;49.324;8.694;2023-12-20T10:10:28;100096.88;;;5.35;100.00
38716;BME280;24833;49.324;8.694;2023-12-20T10:13:12;100094.91;;;5.37;100.00
38716;BME280;24833;49.324;8.694;2023-12-20T10:15:40;100107.00;;;5.39;100.00
38716;BME280;24833;49.324;8.694;2023-12-20T10:18:08;100107.69;;;5.41;100.00
38716;BME280;24833;49.324;8.694;2023-12-20T10:20:36;100101.41;;;5.42;100.00
38716;BME280;24833;49.324;8.694;2023-12-20T10:23:03;100102.25;;;5.43;100.00
38716;BME280;24833;49.324;8.694;2023-12-20T10:25:30;100108.22;;;5.45;100.00
38716;BME280;24833;49.324;8.694;2023-12-20T10:28:15;100111.53;;;5.47;100.00
38716;BME280;24833;49.324;8.694;2023-12-20T10:30:46;100101.63;;;5.49;100.00
38716;BME280;24833;49.324;8.694;2023-12-20T10:33:27;100092.69;;;5.50;100.00
38716;BME280;24833;49.324;8.694;2023-12-20T10:35:56;100083.59;;;5.53;100.00
38716;BME280;24833;49.324;8.694;2023-12-20T10:38:23;100085.41;;;5.52;100.00
38716;BME280;24833;49.324;8.694;2023-12-20T10:40:56;100080.13;;;5.52;100.00
38716;BME280;24833;49.324;8.694;2023-12-20T10:43:24;100081.13;;;5.51;100.00
38716;BME280;24833;49.324;8.694;2023-12-20T10:45:53;100075.81;;;5.51;100.00
38716;BME280;24833;49.324;8.694;2023-12-20T10:48:21;100067.88;;;5.51;100.00
38716;BME280;24833;49.324;8.694;2023-12-20T10:50:56;100073.84;;;5.53;100.00
38716;BME280;24833;49.324;8.694;2023-12-20T10:53:24;100070.19;;;5.54;100.00
38716;BME280;24833;49.324;8.694;2023-12-20T10:55:55;100068.25;;;5.56;100.00
38716;BME280;24833;49.324;8.694;2023-12-20T10:58:24;100072.56;;;5.57;100.00
38716;BME280;24833;49.324;8.694;2023-12-20T11:01:01;100067.09;;;5.59;100.00
38716;BME280;24833;49.324;8.694;2023-12-20T11:03:35;100067.91;;;5.59;100.00
38716;BME280;24833;49.324;8.694;2023-12-20T11:06:19;100074.03;;;5.60;100.00
38716;BME280;24833;49.324;8.694;2023-12-20T11:09:03;100073.06;;;5.61;100.00
38716;BME280;24833;49.324;8.694;2023-12-20T11:14:51;100077.69;;;5.59;100.00
38716;BME280;24833;49.324;8.694;2023-12-20T11:17:19;100070.72;;;5.58;100.00
38716;BME280;24833;49.324;8.694;2023-12-20T11:22:32;100062.94;;;5.56;100.00
38716;BME280;24833;49.324;8.694;2023-12-20T11:25:10;100059.59;;;5.54;100.00
38716;BME280;24833;49.324;8.694;2023-12-20T11:27:42;100055.28;;;5.53;100.00
38716;BME280;24833;49.324;8.694;2023-12-20T11:30:15;100058.78;;;5.54;100.00
38716;BME280;24833;49.324;8.694;2023-12-20T11:32:46;100044.03;;;5.51;100.00
38716;BME280;24833;49.324;8.694;2023-12-20T11:37:41;100037.09;;;5.50;100.00
38716;BME280;24833;49.324;8.694;2023-12-20T11:40:16;100035.44;;;5.49;100.00
38716;BME280;24833;49.324;8.694;2023-12-20T11:42:45;100030.13;;;5.49;100.00
38716;BME280;24833;49.324;8.694;2023-12-20T11:45:21;100036.25;;;5.50;100.00
38716;BME280;24833;49.324;8.694;2023-12-20T11:47:50;100041.56;;;5.50;100.00
38716;BME280;24833;49.324;8.694;2023-12-20T11:50:18;100042.38;;;5.50;100.00
38716;BME280;24833;49.324;8.694;2023-12-20T11:52:47;100033.91;;;5.46;100.00
38716;BME280;24833;49.324;8.694;2023-12-20T11:55:15;100041.19;;;5.44;100.00
38716;BME280;24833;49.324;8.694;2023-12-20T11:57:43;100030.75;;;5.43;100.00
38716;BME280;24833;49.324;8.694;2023-12-20T12:00:11;100037.03;;;5.42;100.00
38716;BME280;24833;49.324;8.694;2023-12-20T12:02:38;100037.88;;;5.42;100.00
38716;BME280;24833;49.324;8.694;2023-12-20T12:05:06;100042.47;;;5.40;100.00
38716;BME280;24833;49.324;8.694;2023-12-20T12:07:35;100027.41;;;5.41;100.00
38716;BME280;24833;49.324;8.694;2023-12-20T12:10:03;100026.59;;;5.40;100.00
38716;BME280;24833;49.324;8.694;2023-12-20T12:12:30;100034.41;;;5.42;100.00
38716;BME280;24833;49.324;8.694;2023-12-20T12:14:59;100041.34;;;5.43;100.00
38716;BME280;24833;49.324;8.694;2023-12-20T12:17:26;100032.41;;;5.44;100.00
38716;BME280;24833;49.324;8.694;2023-12-20T12:20:03;100023.47;;;5.45;100.00
38716;BME280;24833;49.324;8.694;2023-12-20T12:22:31;100034.06;;;5.45;100.00
38716;BME280;24833;49.324;8.694;2023-12-20T12:25:10;100023.47;;;5.45;100.00
38716;BME280;24833;49.324;8.694;2023-12-20T12:27:40;100033.06;;;5.46;100.00
38716;BME280;24833;49.324;8.694;2023-12-20T12:30:09;100031.41;;;5.45;100.00
38716;BME280;24833;49.324;8.694;2023-12-20T12:32:37;100023.63;;;5.43;100.00
38716;BME280;24833;49.324;8.694;2023-12-20T12:35:05;100019.34;;;5.42;100.00
38716;BME280;24833;49.324;8.694;2023-12-20T12:37:39;100013.22;;;5.42;100.00
38716;BME280;24833;49.324;8.694;2023-12-20T12:40:14;100014.34;;;5.39;100.00
38716;BME280;24833;49.324;8.694;2023-12-20T12:42:45;100016.97;;;5.39;100.00
38716;BME280;24833;49.324;8.694;2023-12-20T12:45:12;100027.75;;;5.38;100.00
38716;BME280;24833;49.324;8.694;2023-12-20T12:47:40;100026.06;;;5.37;100.00
38716;BME280;24833;49.324;8.694;2023-12-20T12:50:08;100031.53;;;5.35;100.00
38716;BME280;24833;49.324;8.694;2023-12-20T12:52:35;100028.03;;;5.35;100.00
38716;BME280;24833;49.324;8.694;2023-12-20T12:55:03;100036.13;;;5.33;100.00
38716;BME280;24833;49.324;8.694;2023-12-20T12:57:35;100035.31;;;5.33;100.00
38716;BME280;24833;49.324;8.694;2023-12-20T13:00:03;100034.63;;;5.31;100.00
38716;BME280;24833;49.324;8.694;2023-12-20T13:02:30;100029.50;;;5.29;100.00
38716;BME280;24833;49.324;8.694;2023-12-20T13:04:57;100037.44;;;5.29;100.00
38716;BME280;24833;49.324;8.694;2023-12-20T13:07:32;100044.56;;;5.29;100.00
38716;BME280;24833;49.324;8.694;2023-12-20T13:10:00;100032.28;;;5.28;100.00